sensor_id;sensor_type;location;lat;lon;timestamp;temperature;humidity
1686;DHT22;840;47.980;7.830;2022-07-26T00:01:41;26.40;82.10
1686;DHT22;840;47.980;7.830;2022-07-26T00:04:08;26.40;82.60
1686;DHT22;840;47.980;7.830;2022-07-26T00:06:36;26.40;82.90
1686;DHT22;840;47.980;7.830;2022-07-26T00:09:03;26.40;83.10
1686;DHT22;840;47.980;7.830;2022-07-26T00:11:30;26.40;83.10
1686;DHT22;840;47.980;7.830;2022-07-26T00:13:59;26.40;83.40
1686;DHT22;840;47.980;7.830;2022-07-26T00:16:26;26.30;85.00
1686;DHT22;840;47.980;7.830;2022-07-26T00:18:53;26.20;84.80
1686;DHT22;840;47.980;7.830;2022-07-26T00:21:20;26.10;85.10
1686;DHT22;840;47.980;7.830;2022-07-26T00:23:46;26.10;86.00
1686;DHT22;840;47.980;7.830;2022-07-26T00:26:14;26.00;86.70
1686;DHT22;840;47.980;7.830;2022-07-26T00:28:41;25.90;88.00
1686;DHT22;840;47.980;7.830;2022-07-26T00:31:09;25.80;88.80
1686;DHT22;840;47.980;7.830;2022-07-26T00:33:37;25.80;89.90
1686;DHT22;840;47.980;7.830;2022-07-26T00:36:04;25.70;90.10
1686;DHT22;840;47.980;7.830;2022-07-26T00:38:32;25.70;90.40
1686;DHT22;840;47.980;7.830;2022-07-26T00:40:58;25.70;90.60
1686;DHT22;840;47.980;7.830;2022-07-26T00:43:25;25.70;90.70
1686;DHT22;840;47.980;7.830;2022-07-26T00:45:52;25.80;91.10
1686;DHT22;840;47.980;7.830;2022-07-26T00:48:20;25.70;91.00
1686;DHT22;840;47.980;7.830;2022-07-26T00:50:47;25.70;91.30
1686;DHT22;840;47.980;7.830;2022-07-26T00:53:14;25.70;91.10
1686;DHT22;840;47.980;7.830;2022-07-26T00:55:44;25.60;91.20
1686;DHT22;840;47.980;7.830;2022-07-26T00:58:12;25.50;91.40
1686;DHT22;840;47.980;7.830;2022-07-26T01:00:39;25.40;91.80
1686;DHT22;840;47.980;7.830;2022-07-26T01:03:06;25.40;92.10
1686;DHT22;840;47.980;7.830;2022-07-26T01:05:34;25.30;92.40
1686;DHT22;840;47.980;7.830;2022-07-26T01:08:01;25.30;92.50
1686;DHT22;840;47.980;7.830;2022-07-26T01:10:28;25.30;92.60
1686;DHT22;840;47.980;7.830;2022-07-26T01:12:55;25.30;92.60
1686;DHT22;840;47.980;7.830;2022-07-26T01:15:22;25.30;92.70
1686;DHT22;840;47.980;7.830;2022-07-26T01:17:49;25.30;92.90
1686;DHT22;840;47.980;7.830;2022-07-26T01:20:15;25.30;92.90
1686;DHT22;840;47.980;7.830;2022-07-26T01:22:43;25.20;92.80
1686;DHT22;840;47.980;7.830;2022-07-26T01:25:10;25.10;92.90
1686;DHT22;840;47.980;7.830;2022-07-26T01:27:37;25.10;93.20
1686;DHT22;840;47.980;7.830;2022-07-26T01:30:07;25.10;93.20
1686;DHT22;840;47.980;7.830;2022-07-26T01:32:34;25.20;93.40
1686;DHT22;840;47.980;7.830;2022-07-26T01:35:01;25.20;93.40
1686;DHT22;840;47.980;7.830;2022-07-26T01:37:28;25.20;93.30
1686;DHT22;840;47.980;7.830;2022-07-26T01:39:56;25.20;93.30
1686;DHT22;840;47.980;7.830;2022-07-26T01:42:22;25.10;93.40
1686;DHT22;840;47.980;7.830;2022-07-26T01:44:49;25.10;93.60
1686;DHT22;840;47.980;7.830;2022-07-26T01:47:16;25.00;93.70
1686;DHT22;840;47.980;7.830;2022-07-26T01:49:43;25.10;93.80
1686;DHT22;840;47.980;7.830;2022-07-26T01:52:10;25.10;93.90
1686;DHT22;840;47.980;7.830;2022-07-26T01:54:37;25.10;93.80
1686;DHT22;840;47.980;7.830;2022-07-26T01:57:05;25.20;93.70
1686;DHT22;840;47.980;7.830;2022-07-26T01:59:32;25.20;93.80
1686;DHT22;840;47.980;7.830;2022-07-26T02:01:59;25.30;94.00
1686;DHT22;840;47.980;7.830;2022-07-26T02:04:27;25.30;94.10
1686;DHT22;840;47.980;7.830;2022-07-26T02:07:11;25.30;94.30
1686;DHT22;840;47.980;7.830;2022-07-26T02:09:38;25.30;94.50
1686;DHT22;840;47.980;7.830;2022-07-26T02:12:07;25.40;94.60
1686;DHT22;840;47.980;7.830;2022-07-26T02:14:33;25.40;94.60
1686;DHT22;840;47.980;7.830;2022-07-26T02:17:00;25.40;94.50
1686;DHT22;840;47.980;7.830;2022-07-26T02:19:28;25.40;94.50
1686;DHT22;840;47.980;7.830;2022-07-26T02:21:56;25.40;94.60
1686;DHT22;840;47.980;7.830;2022-07-26T02:24:23;25.40;94.60
1686;DHT22;840;47.980;7.830;2022-07-26T02:26:51;25.30;94.60
1686;DHT22;840;47.980;7.830;2022-07-26T02:29:20;25.30;94.60
1686;DHT22;840;47.980;7.830;2022-07-26T02:31:46;25.30;94.60
1686;DHT22;840;47.980;7.830;2022-07-26T02:34:13;25.20;94.60
1686;DHT22;840;47.980;7.830;2022-07-26T02:36:40;25.10;95.00
1686;DHT22;840;47.980;7.830;2022-07-26T02:39:07;25.00;95.30
1686;DHT22;840;47.980;7.830;2022-07-26T02:41:33;25.00;95.50
1686;DHT22;840;47.980;7.830;2022-07-26T02:44:00;24.90;95.00
1686;DHT22;840;47.980;7.830;2022-07-26T02:46:28;24.80;95.10
1686;DHT22;840;47.980;7.830;2022-07-26T02:48:55;24.80;95.40
1686;DHT22;840;47.980;7.830;2022-07-26T02:51:22;24.80;95.50
1686;DHT22;840;47.980;7.830;2022-07-26T02:53:48;24.80;95.60
1686;DHT22;840;47.980;7.830;2022-07-26T02:56:15;24.80;95.40
1686;DHT22;840;47.980;7.830;2022-07-26T02:58:42;24.70;95.50
1686;DHT22;840;47.980;7.830;2022-07-26T03:01:09;24.60;95.70
1686;DHT22;840;47.980;7.830;2022-07-26T03:03:37;24.60;96.00
1686;DHT22;840;47.980;7.830;2022-07-26T03:06:04;24.50;96.20
1686;DHT22;840;47.980;7.830;2022-07-26T03:08:31;24.50;96.60
1686;DHT22;840;47.980;7.830;2022-07-26T03:10:58;24.50;96.80
1686;DHT22;840;47.980;7.830;2022-07-26T03:13:25;24.40;96.90
1686;DHT22;840;47.980;7.830;2022-07-26T03:15:52;24.50;97.20
1686;DHT22;840;47.980;7.830;2022-07-26T03:18:18;24.50;97.30
1686;DHT22;840;47.980;7.830;2022-07-26T03:20:46;24.50;97.60
1686;DHT22;840;47.980;7.830;2022-07-26T03:23:14;24.50;97.70
1686;DHT22;840;47.980;7.830;2022-07-26T03:25:41;24.50;97.80
1686;DHT22;840;47.980;7.830;2022-07-26T03:28:08;24.40;98.00
1686;DHT22;840;47.980;7.830;2022-07-26T03:30:35;24.30;98.40
1686;DHT22;840;47.980;7.830;2022-07-26T03:33:01;24.30;98.80
1686;DHT22;840;47.980;7.830;2022-07-26T03:35:28;24.30;99.40
1686;DHT22;840;47.980;7.830;2022-07-26T03:37:56;24.30;99.70
1686;DHT22;840;47.980;7.830;2022-07-26T03:40:23;24.30;99.40
1686;DHT22;840;47.980;7.830;2022-07-26T03:42:50;24.20;99.50
1686;DHT22;840;47.980;7.830;2022-07-26T03:45:17;24.10;99.80
1686;DHT22;840;47.980;7.830;2022-07-26T03:47:43;24.20;99.90
1686;DHT22;840;47.980;7.830;2022-07-26T03:50:11;24.20;99.90
1686;DHT22;840;47.980;7.830;2022-07-26T03:52:38;24.20;99.90
1686;DHT22;840;47.980;7.830;2022-07-26T03:55:08;24.20;99.90
1686;DHT22;840;47.980;7.830;2022-07-26T03:57:53;24.10;99.90
1686;DHT22;840;47.980;7.830;2022-07-26T04:00:20;24.00;99.90
1686;DHT22;840;47.980;7.830;2022-07-26T04:02:47;23.70;99.90
1686;DHT22;840;47.980;7.830;2022-07-26T04:05:14;23.60;99.90
1686;DHT22;840;47.980;7.830;2022-07-26T04:07:41;23.50;99.90
1686;DHT22;840;47.980;7.830;2022-07-26T04:10:10;23.40;99.90
1686;DHT22;840;47.980;7.830;2022-07-26T04:12:37;23.40;99.90
1686;DHT22;840;47.980;7.830;2022-07-26T04:15:05;23.40;99.90
1686;DHT22;840;47.980;7.830;2022-07-26T04:17:36;23.30;99.90
1686;DHT22;840;47.980;7.830;2022-07-26T04:20:03;23.30;99.90
1686;DHT22;840;47.980;7.830;2022-07-26T04:22:31;23.20;99.90
1686;DHT22;840;47.980;7.830;2022-07-26T04:24:57;23.20;99.90
1686;DHT22;840;47.980;7.830;2022-07-26T04:27:26;23.20;99.90
1686;DHT22;840;47.980;7.830;2022-07-26T04:29:53;23.30;99.90
1686;DHT22;840;47.980;7.830;2022-07-26T04:32:20;23.30;99.90
1686;DHT22;840;47.980;7.830;2022-07-26T04:34:47;23.30;99.90
1686;DHT22;840;47.980;7.830;2022-07-26T04:37:14;23.30;99.90
1686;DHT22;840;47.980;7.830;2022-07-26T04:39:41;23.20;99.90
1686;DHT22;840;47.980;7.830;2022-07-26T04:42:08;23.30;99.90
1686;DHT22;840;47.980;7.830;2022-07-26T04:44:36;23.30;99.90
1686;DHT22;840;47.980;7.830;2022-07-26T04:47:03;23.20;99.90
1686;DHT22;840;47.980;7.830;2022-07-26T04:49:29;23.20;99.90
1686;DHT22;840;47.980;7.830;2022-07-26T04:51:56;23.20;99.90
1686;DHT22;840;47.980;7.830;2022-07-26T04:54:24;23.20;99.90
1686;DHT22;840;47.980;7.830;2022-07-26T04:56:51;23.10;99.90
1686;DHT22;840;47.980;7.830;2022-07-26T04:59:18;23.10;99.90
1686;DHT22;840;47.980;7.830;2022-07-26T05:01:46;23.10;99.90
1686;DHT22;840;47.980;7.830;2022-07-26T05:04:13;22.90;99.90
1686;DHT22;840;47.980;7.830;2022-07-26T05:06:40;22.90;99.90
1686;DHT22;840;47.980;7.830;2022-07-26T05:09:07;22.80;99.90
1686;DHT22;840;47.980;7.830;2022-07-26T05:11:35;22.80;99.90
1686;DHT22;840;47.980;7.830;2022-07-26T05:14:02;22.60;99.90
1686;DHT22;840;47.980;7.830;2022-07-26T05:16:29;22.60;99.90
1686;DHT22;840;47.980;7.830;2022-07-26T05:18:57;22.50;99.90
1686;DHT22;840;47.980;7.830;2022-07-26T05:21:24;22.40;99.90
1686;DHT22;840;47.980;7.830;2022-07-26T05:23:52;22.30;99.90
1686;DHT22;840;47.980;7.830;2022-07-26T05:26:19;22.30;99.90
1686;DHT22;840;47.980;7.830;2022-07-26T05:28:45;22.40;99.90
1686;DHT22;840;47.980;7.830;2022-07-26T05:31:12;22.50;99.90
1686;DHT22;840;47.980;7.830;2022-07-26T05:33:39;22.60;99.90
1686;DHT22;840;47.980;7.830;2022-07-26T05:36:08;22.70;99.90
1686;DHT22;840;47.980;7.830;2022-07-26T05:38:35;22.80;99.90
1686;DHT22;840;47.980;7.830;2022-07-26T05:41:02;22.80;99.90
1686;DHT22;840;47.980;7.830;2022-07-26T05:43:29;22.90;99.90
1686;DHT22;840;47.980;7.830;2022-07-26T05:45:56;23.00;99.90
1686;DHT22;840;47.980;7.830;2022-07-26T05:48:23;23.10;99.90
1686;DHT22;840;47.980;7.830;2022-07-26T05:50:49;23.10;99.90
1686;DHT22;840;47.980;7.830;2022-07-26T05:53:18;23.10;99.90
1686;DHT22;840;47.980;7.830;2022-07-26T05:55:44;23.10;99.90
1686;DHT22;840;47.980;7.830;2022-07-26T05:58:11;23.20;99.90
1686;DHT22;840;47.980;7.830;2022-07-26T06:00:38;23.20;99.90
1686;DHT22;840;47.980;7.830;2022-07-26T06:03:05;23.10;99.90
1686;DHT22;840;47.980;7.830;2022-07-26T06:05:46;23.10;99.90
1686;DHT22;840;47.980;7.830;2022-07-26T06:08:13;23.00;99.90
1686;DHT22;840;47.980;7.830;2022-07-26T06:10:41;23.10;99.90
1686;DHT22;840;47.980;7.830;2022-07-26T06:13:08;23.10;99.90
1686;DHT22;840;47.980;7.830;2022-07-26T06:15:35;23.20;99.90
1686;DHT22;840;47.980;7.830;2022-07-26T06:18:02;23.10;99.90
1686;DHT22;840;47.980;7.830;2022-07-26T06:20:29;23.10;99.90
1686;DHT22;840;47.980;7.830;2022-07-26T06:22:55;23.20;99.90
1686;DHT22;840;47.980;7.830;2022-07-26T06:25:23;23.40;99.90
1686;DHT22;840;47.980;7.830;2022-07-26T06:27:51;23.60;99.90
1686;DHT22;840;47.980;7.830;2022-07-26T06:30:18;23.70;99.90
1686;DHT22;840;47.980;7.830;2022-07-26T06:32:45;23.70;99.90
1686;DHT22;840;47.980;7.830;2022-07-26T06:35:13;23.40;99.90
1686;DHT22;840;47.980;7.830;2022-07-26T06:37:41;23.10;99.90
1686;DHT22;840;47.980;7.830;2022-07-26T06:40:10;23.10;99.90
1686;DHT22;840;47.980;7.830;2022-07-26T06:42:37;23.00;99.90
1686;DHT22;840;47.980;7.830;2022-07-26T06:45:06;23.00;99.90
1686;DHT22;840;47.980;7.830;2022-07-26T06:47:33;23.10;99.90
1686;DHT22;840;47.980;7.830;2022-07-26T06:50:00;23.10;99.90
1686;DHT22;840;47.980;7.830;2022-07-26T06:52:27;23.10;99.90
1686;DHT22;840;47.980;7.830;2022-07-26T06:54:54;23.10;99.90
1686;DHT22;840;47.980;7.830;2022-07-26T06:57:20;23.10;99.90
1686;DHT22;840;47.980;7.830;2022-07-26T06:59:47;23.30;99.90
1686;DHT22;840;47.980;7.830;2022-07-26T07:02:15;23.40;99.90
1686;DHT22;840;47.980;7.830;2022-07-26T07:04:42;23.50;99.90
1686;DHT22;840;47.980;7.830;2022-07-26T07:07:09;23.60;99.90
1686;DHT22;840;47.980;7.830;2022-07-26T07:09:37;23.70;99.90
1686;DHT22;840;47.980;7.830;2022-07-26T07:12:05;23.60;99.90
1686;DHT22;840;47.980;7.830;2022-07-26T07:14:33;23.40;99.90
1686;DHT22;840;47.980;7.830;2022-07-26T07:16:59;23.30;99.90
1686;DHT22;840;47.980;7.830;2022-07-26T07:19:28;23.30;99.90
1686;DHT22;840;47.980;7.830;2022-07-26T07:21:55;23.40;99.90
1686;DHT22;840;47.980;7.830;2022-07-26T07:24:22;23.50;99.90
1686;DHT22;840;47.980;7.830;2022-07-26T07:26:49;23.60;99.90
1686;DHT22;840;47.980;7.830;2022-07-26T07:29:16;23.70;99.90
1686;DHT22;840;47.980;7.830;2022-07-26T07:31:45;23.80;99.90
1686;DHT22;840;47.980;7.830;2022-07-26T07:34:12;23.90;99.90
1686;DHT22;840;47.980;7.830;2022-07-26T07:36:40;23.90;99.90
1686;DHT22;840;47.980;7.830;2022-07-26T07:39:07;23.80;99.90
1686;DHT22;840;47.980;7.830;2022-07-26T07:41:34;23.80;99.90
1686;DHT22;840;47.980;7.830;2022-07-26T07:44:03;23.80;99.90
1686;DHT22;840;47.980;7.830;2022-07-26T07:46:29;23.80;99.90
1686;DHT22;840;47.980;7.830;2022-07-26T07:48:56;23.80;99.90
1686;DHT22;840;47.980;7.830;2022-07-26T07:51:24;23.80;99.90
1686;DHT22;840;47.980;7.830;2022-07-26T07:53:52;23.80;99.90
1686;DHT22;840;47.980;7.830;2022-07-26T07:56:19;23.90;99.90
1686;DHT22;840;47.980;7.830;2022-07-26T07:58:46;23.90;99.90
1686;DHT22;840;47.980;7.830;2022-07-26T08:01:13;23.90;99.90
1686;DHT22;840;47.980;7.830;2022-07-26T08:03:40;23.80;99.90
1686;DHT22;840;47.980;7.830;2022-07-26T08:06:08;23.90;99.90
1686;DHT22;840;47.980;7.830;2022-07-26T08:08:36;23.90;99.90
1686;DHT22;840;47.980;7.830;2022-07-26T08:11:04;24.00;99.90
1686;DHT22;840;47.980;7.830;2022-07-26T08:13:31;24.00;98.50
1686;DHT22;840;47.980;7.830;2022-07-26T08:15:58;23.90;97.30
1686;DHT22;840;47.980;7.830;2022-07-26T08:18:25;23.90;98.00
1686;DHT22;840;47.980;7.830;2022-07-26T08:20:52;23.90;97.20
1686;DHT22;840;47.980;7.830;2022-07-26T08:23:20;23.80;97.90
1686;DHT22;840;47.980;7.830;2022-07-26T08:25:47;23.90;97.70
1686;DHT22;840;47.980;7.830;2022-07-26T08:28:15;24.10;97.80
1686;DHT22;840;47.980;7.830;2022-07-26T08:30:42;24.20;98.00
1686;DHT22;840;47.980;7.830;2022-07-26T08:33:09;24.50;97.40
1686;DHT22;840;47.980;7.830;2022-07-26T08:35:35;24.70;97.20
1686;DHT22;840;47.980;7.830;2022-07-26T08:38:02;24.80;96.50
1686;DHT22;840;47.980;7.830;2022-07-26T08:40:29;24.80;96.20
1686;DHT22;840;47.980;7.830;2022-07-26T08:42:56;24.60;96.30
1686;DHT22;840;47.980;7.830;2022-07-26T08:45:26;24.70;96.80
1686;DHT22;840;47.980;7.830;2022-07-26T08:47:53;24.70;96.60
1686;DHT22;840;47.980;7.830;2022-07-26T08:50:21;24.70;97.30
1686;DHT22;840;47.980;7.830;2022-07-26T08:52:48;24.60;96.30
1686;DHT22;840;47.980;7.830;2022-07-26T08:55:16;24.40;96.50
1686;DHT22;840;47.980;7.830;2022-07-26T08:57:43;24.50;97.00
1686;DHT22;840;47.980;7.830;2022-07-26T09:00:14;24.60;97.00
1686;DHT22;840;47.980;7.830;2022-07-26T09:02:42;24.80;95.90
1686;DHT22;840;47.980;7.830;2022-07-26T09:05:09;25.10;96.10
1686;DHT22;840;47.980;7.830;2022-07-26T09:07:37;25.30;94.90
1686;DHT22;840;47.980;7.830;2022-07-26T09:10:06;25.60;96.00
1686;DHT22;840;47.980;7.830;2022-07-26T09:12:34;25.80;96.20
1686;DHT22;840;47.980;7.830;2022-07-26T09:15:03;25.80;95.60
1686;DHT22;840;47.980;7.830;2022-07-26T09:17:38;25.80;95.30
1686;DHT22;840;47.980;7.830;2022-07-26T09:20:10;25.90;95.00
1686;DHT22;840;47.980;7.830;2022-07-26T09:22:38;26.00;95.40
1686;DHT22;840;47.980;7.830;2022-07-26T09:25:22;25.80;93.40
1686;DHT22;840;47.980;7.830;2022-07-26T09:27:49;25.70;94.10
1686;DHT22;840;47.980;7.830;2022-07-26T09:30:16;25.60;93.30
1686;DHT22;840;47.980;7.830;2022-07-26T09:32:55;25.60;93.50
1686;DHT22;840;47.980;7.830;2022-07-26T09:35:24;25.70;93.50
1686;DHT22;840;47.980;7.830;2022-07-26T09:37:51;25.80;93.60
1686;DHT22;840;47.980;7.830;2022-07-26T09:40:18;25.50;92.90
1686;DHT22;840;47.980;7.830;2022-07-26T09:42:55;25.50;93.30
1686;DHT22;840;47.980;7.830;2022-07-26T09:45:23;25.60;93.40
1686;DHT22;840;47.980;7.830;2022-07-26T09:47:50;25.30;94.50
1686;DHT22;840;47.980;7.830;2022-07-26T09:50:18;25.20;95.00
1686;DHT22;840;47.980;7.830;2022-07-26T09:53:01;25.10;95.10
1686;DHT22;840;47.980;7.830;2022-07-26T09:55:28;25.20;94.60
1686;DHT22;840;47.980;7.830;2022-07-26T09:57:57;25.20;94.30
1686;DHT22;840;47.980;7.830;2022-07-26T10:00:28;25.30;94.00
1686;DHT22;840;47.980;7.830;2022-07-26T10:02:55;25.40;94.30
1686;DHT22;840;47.980;7.830;2022-07-26T10:05:22;25.60;92.90
1686;DHT22;840;47.980;7.830;2022-07-26T10:07:50;25.70;92.40
1686;DHT22;840;47.980;7.830;2022-07-26T10:10:22;25.70;91.50
1686;DHT22;840;47.980;7.830;2022-07-26T10:12:51;25.60;91.50
1686;DHT22;840;47.980;7.830;2022-07-26T10:15:36;25.60;91.40
1686;DHT22;840;47.980;7.830;2022-07-26T10:18:03;25.50;91.80
1686;DHT22;840;47.980;7.830;2022-07-26T10:20:48;25.40;91.50
1686;DHT22;840;47.980;7.830;2022-07-26T10:23:39;25.00;91.10
1686;DHT22;840;47.980;7.830;2022-07-26T10:26:09;25.10;91.90
1686;DHT22;840;47.980;7.830;2022-07-26T10:28:38;25.20;92.30
1686;DHT22;840;47.980;7.830;2022-07-26T10:31:27;25.30;91.40
1686;DHT22;840;47.980;7.830;2022-07-26T10:33:58;25.40;90.90
1686;DHT22;840;47.980;7.830;2022-07-26T10:36:28;25.50;91.00
1686;DHT22;840;47.980;7.830;2022-07-26T10:39:00;25.60;90.10
1686;DHT22;840;47.980;7.830;2022-07-26T10:41:33;25.60;89.90
1686;DHT22;840;47.980;7.830;2022-07-26T10:44:22;25.50;90.40
1686;DHT22;840;47.980;7.830;2022-07-26T10:46:58;25.30;90.80
1686;DHT22;840;47.980;7.830;2022-07-26T10:49:36;25.30;91.00
1686;DHT22;840;47.980;7.830;2022-07-26T10:52:09;25.30;91.40
1686;DHT22;840;47.980;7.830;2022-07-26T10:57:46;25.60;90.70
1686;DHT22;840;47.980;7.830;2022-07-26T11:00:19;25.70;89.90
1686;DHT22;840;47.980;7.830;2022-07-26T11:02:48;25.90;90.60
1686;DHT22;840;47.980;7.830;2022-07-26T11:05:17;26.00;88.30
1686;DHT22;840;47.980;7.830;2022-07-26T11:07:50;26.00;89.10
1686;DHT22;840;47.980;7.830;2022-07-26T11:10:22;26.00;88.50
1686;DHT22;840;47.980;7.830;2022-07-26T11:12:59;26.00;87.30
1686;DHT22;840;47.980;7.830;2022-07-26T11:15:26;26.00;87.90
1686;DHT22;840;47.980;7.830;2022-07-26T11:18:05;25.90;87.30
1686;DHT22;840;47.980;7.830;2022-07-26T11:20:32;25.90;87.30
1686;DHT22;840;47.980;7.830;2022-07-26T11:22:59;25.90;87.00
1686;DHT22;840;47.980;7.830;2022-07-26T11:25:26;26.00;87.70
1686;DHT22;840;47.980;7.830;2022-07-26T11:28:02;26.10;85.50
1686;DHT22;840;47.980;7.830;2022-07-26T11:30:29;26.10;85.60
1686;DHT22;840;47.980;7.830;2022-07-26T11:32:57;26.00;84.60
1686;DHT22;840;47.980;7.830;2022-07-26T11:35:24;26.00;85.50
1686;DHT22;840;47.980;7.830;2022-07-26T11:37:53;25.90;84.40
1686;DHT22;840;47.980;7.830;2022-07-26T11:40:41;25.80;83.50
1686;DHT22;840;47.980;7.830;2022-07-26T11:43:09;25.90;84.10
1686;DHT22;840;47.980;7.830;2022-07-26T11:45:36;26.00;84.20
1686;DHT22;840;47.980;7.830;2022-07-26T11:48:04;26.20;83.60
1686;DHT22;840;47.980;7.830;2022-07-26T11:50:31;26.30;82.40
1686;DHT22;840;47.980;7.830;2022-07-26T11:52:57;26.30;83.70
1686;DHT22;840;47.980;7.830;2022-07-26T11:55:26;26.40;83.60
1686;DHT22;840;47.980;7.830;2022-07-26T11:57:53;26.50;81.30
1686;DHT22;840;47.980;7.830;2022-07-26T12:00:22;26.70;81.30
1686;DHT22;840;47.980;7.830;2022-07-26T12:02:49;26.90;80.80
1686;DHT22;840;47.980;7.830;2022-07-26T12:05:17;27.00;80.60
1686;DHT22;840;47.980;7.830;2022-07-26T12:07:56;27.00;80.00
1686;DHT22;840;47.980;7.830;2022-07-26T12:10:23;26.80;80.00
1686;DHT22;840;47.980;7.830;2022-07-26T12:13:05;26.50;80.20
1686;DHT22;840;47.980;7.830;2022-07-26T12:15:47;26.50;79.70
1686;DHT22;840;47.980;7.830;2022-07-26T12:18:22;26.50;80.20
1686;DHT22;840;47.980;7.830;2022-07-26T12:20:56;26.40;81.20
1686;DHT22;840;47.980;7.830;2022-07-26T12:23:23;26.20;80.70
1686;DHT22;840;47.980;7.830;2022-07-26T12:25:50;26.10;80.30
1686;DHT22;840;47.980;7.830;2022-07-26T12:28:38;26.20;80.50
1686;DHT22;840;47.980;7.830;2022-07-26T12:31:21;26.20;80.20
1686;DHT22;840;47.980;7.830;2022-07-26T12:33:48;26.50;80.70
1686;DHT22;840;47.980;7.830;2022-07-26T12:36:18;26.90;78.10
1686;DHT22;840;47.980;7.830;2022-07-26T12:38:46;27.20;78.90
1686;DHT22;840;47.980;7.830;2022-07-26T12:41:31;27.60;76.50
1686;DHT22;840;47.980;7.830;2022-07-26T12:43:58;28.00;74.60
1686;DHT22;840;47.980;7.830;2022-07-26T12:46:26;28.00;72.80
1686;DHT22;840;47.980;7.830;2022-07-26T12:48:56;28.00;72.70
1686;DHT22;840;47.980;7.830;2022-07-26T12:51:26;28.20;72.20
1686;DHT22;840;47.980;7.830;2022-07-26T12:53:53;28.60;71.80
1686;DHT22;840;47.980;7.830;2022-07-26T12:56:20;28.90;69.40
1686;DHT22;840;47.980;7.830;2022-07-26T12:58:47;29.00;69.10
1686;DHT22;840;47.980;7.830;2022-07-26T13:01:14;29.20;69.40
1686;DHT22;840;47.980;7.830;2022-07-26T13:03:42;28.80;68.30
1686;DHT22;840;47.980;7.830;2022-07-26T13:06:09;28.60;69.00
1686;DHT22;840;47.980;7.830;2022-07-26T13:08:37;28.60;69.10
1686;DHT22;840;47.980;7.830;2022-07-26T13:11:03;28.70;68.10
1686;DHT22;840;47.980;7.830;2022-07-26T13:13:30;28.60;69.50
1686;DHT22;840;47.980;7.830;2022-07-26T13:15:57;28.70;69.50
1686;DHT22;840;47.980;7.830;2022-07-26T13:18:24;28.70;67.80
1686;DHT22;840;47.980;7.830;2022-07-26T13:20:52;28.30;67.90
1686;DHT22;840;47.980;7.830;2022-07-26T13:23:19;28.30;68.40
1686;DHT22;840;47.980;7.830;2022-07-26T13:25:46;28.50;70.60
1686;DHT22;840;47.980;7.830;2022-07-26T13:28:13;29.00;67.80
1686;DHT22;840;47.980;7.830;2022-07-26T13:30:40;29.30;65.30
1686;DHT22;840;47.980;7.830;2022-07-26T13:33:08;29.50;65.50
1686;DHT22;840;47.980;7.830;2022-07-26T13:35:34;29.70;63.70
1686;DHT22;840;47.980;7.830;2022-07-26T13:38:04;29.70;63.40
1686;DHT22;840;47.980;7.830;2022-07-26T13:40:31;29.30;63.20
1686;DHT22;840;47.980;7.830;2022-07-26T13:42:58;28.90;64.80
1686;DHT22;840;47.980;7.830;2022-07-26T13:45:25;28.90;66.40
1686;DHT22;840;47.980;7.830;2022-07-26T13:47:51;29.10;65.20
1686;DHT22;840;47.980;7.830;2022-07-26T13:50:18;29.60;65.90
1686;DHT22;840;47.980;7.830;2022-07-26T13:52:45;30.00;62.60
1686;DHT22;840;47.980;7.830;2022-07-26T13:55:13;29.80;60.30
1686;DHT22;840;47.980;7.830;2022-07-26T13:57:40;30.00;61.40
1686;DHT22;840;47.980;7.830;2022-07-26T14:00:08;30.50;60.30
1686;DHT22;840;47.980;7.830;2022-07-26T14:02:35;30.90;59.40
1686;DHT22;840;47.980;7.830;2022-07-26T14:05:02;31.00;57.80
1686;DHT22;840;47.980;7.830;2022-07-26T14:07:29;31.10;57.30
1686;DHT22;840;47.980;7.830;2022-07-26T14:09:56;31.00;57.80
1686;DHT22;840;47.980;7.830;2022-07-26T14:12:24;30.60;57.40
1686;DHT22;840;47.980;7.830;2022-07-26T14:14:51;30.30;57.80
1686;DHT22;840;47.980;7.830;2022-07-26T14:17:17;30.20;57.80
1686;DHT22;840;47.980;7.830;2022-07-26T14:19:44;30.20;57.80
1686;DHT22;840;47.980;7.830;2022-07-26T14:22:11;30.00;57.10
1686;DHT22;840;47.980;7.830;2022-07-26T14:24:38;29.90;58.10
1686;DHT22;840;47.980;7.830;2022-07-26T14:27:06;29.90;57.50
1686;DHT22;840;47.980;7.830;2022-07-26T14:29:34;29.50;57.80
1686;DHT22;840;47.980;7.830;2022-07-26T14:32:02;29.50;59.10
1686;DHT22;840;47.980;7.830;2022-07-26T14:34:28;29.50;58.00
1686;DHT22;840;47.980;7.830;2022-07-26T14:36:55;29.40;57.90
1686;DHT22;840;47.980;7.830;2022-07-26T14:39:22;29.10;57.60
1686;DHT22;840;47.980;7.830;2022-07-26T14:41:48;29.30;59.60
1686;DHT22;840;47.980;7.830;2022-07-26T14:44:16;29.80;59.20
1686;DHT22;840;47.980;7.830;2022-07-26T14:46:44;30.00;57.40
1686;DHT22;840;47.980;7.830;2022-07-26T14:49:10;30.10;57.40
1686;DHT22;840;47.980;7.830;2022-07-26T14:51:37;30.20;56.80
1686;DHT22;840;47.980;7.830;2022-07-26T14:54:04;30.30;57.00
1686;DHT22;840;47.980;7.830;2022-07-26T14:56:31;30.50;57.20
1686;DHT22;840;47.980;7.830;2022-07-26T14:58:58;30.70;55.70
1686;DHT22;840;47.980;7.830;2022-07-26T15:01:25;30.70;56.10
1686;DHT22;840;47.980;7.830;2022-07-26T15:03:53;30.80;55.90
1686;DHT22;840;47.980;7.830;2022-07-26T15:06:19;31.10;55.10
1686;DHT22;840;47.980;7.830;2022-07-26T15:08:46;31.10;54.70
1686;DHT22;840;47.980;7.830;2022-07-26T15:11:13;31.10;53.90
1686;DHT22;840;47.980;7.830;2022-07-26T15:13:40;31.20;54.00
1686;DHT22;840;47.980;7.830;2022-07-26T15:16:07;31.50;54.40
1686;DHT22;840;47.980;7.830;2022-07-26T15:18:35;31.60;52.30
1686;DHT22;840;47.980;7.830;2022-07-26T15:21:03;31.40;52.20
1686;DHT22;840;47.980;7.830;2022-07-26T15:23:30;31.00;53.50
1686;DHT22;840;47.980;7.830;2022-07-26T15:25:57;31.00;53.10
1686;DHT22;840;47.980;7.830;2022-07-26T15:28:24;30.90;53.00
1686;DHT22;840;47.980;7.830;2022-07-26T15:30:51;31.00;53.30
1686;DHT22;840;47.980;7.830;2022-07-26T15:33:18;31.10;52.90
1686;DHT22;840;47.980;7.830;2022-07-26T15:35:46;31.10;52.60
1686;DHT22;840;47.980;7.830;2022-07-26T15:38:15;30.90;52.50
1686;DHT22;840;47.980;7.830;2022-07-26T15:40:42;30.80;52.70
1686;DHT22;840;47.980;7.830;2022-07-26T15:43:08;30.50;53.00
1686;DHT22;840;47.980;7.830;2022-07-26T15:45:35;30.30;53.70
1686;DHT22;840;47.980;7.830;2022-07-26T15:48:05;30.30;53.10
1686;DHT22;840;47.980;7.830;2022-07-26T15:50:32;30.40;52.90
1686;DHT22;840;47.980;7.830;2022-07-26T15:52:58;30.80;53.80
1686;DHT22;840;47.980;7.830;2022-07-26T15:55:26;31.10;52.70
1686;DHT22;840;47.980;7.830;2022-07-26T15:57:53;31.20;51.40
1686;DHT22;840;47.980;7.830;2022-07-26T16:00:20;31.20;51.20
1686;DHT22;840;47.980;7.830;2022-07-26T16:02:47;30.70;51.70
1686;DHT22;840;47.980;7.830;2022-07-26T16:05:15;30.30;52.50
1686;DHT22;840;47.980;7.830;2022-07-26T16:07:43;29.80;53.20
1686;DHT22;840;47.980;7.830;2022-07-26T16:10:11;29.70;53.60
1686;DHT22;840;47.980;7.830;2022-07-26T16:12:41;29.40;53.80
1686;DHT22;840;47.980;7.830;2022-07-26T16:15:09;29.50;54.10
1686;DHT22;840;47.980;7.830;2022-07-26T16:17:36;29.50;54.40
1686;DHT22;840;47.980;7.830;2022-07-26T16:20:04;29.50;54.40
1686;DHT22;840;47.980;7.830;2022-07-26T16:22:31;29.70;53.80
1686;DHT22;840;47.980;7.830;2022-07-26T16:24:57;30.00;53.70
1686;DHT22;840;47.980;7.830;2022-07-26T16:27:25;30.30;53.30